sensor_id;sensor_type;location;lat;lon;timestamp;P1;durP1;ratioP1;P2;durP2;ratioP2
44098;SDS011;29762;50.086;14.364;2023-04-06T00:01:36;1.50;;;1.00;;
44098;SDS011;29762;50.086;14.364;2023-04-06T00:06:56;1.50;;;1.20;;
44098;SDS011;29762;50.086;14.364;2023-04-06T00:12:15;1.25;;;1.15;;
44098;SDS011;29762;50.086;14.364;2023-04-06T00:17:35;1.20;;;1.10;;
44098;SDS011;29762;50.086;14.364;2023-04-06T00:22:54;1.85;;;1.00;;
44098;SDS011;29762;50.086;14.364;2023-04-06T00:28:14;1.30;;;1.20;;
44098;SDS011;29762;50.086;14.364;2023-04-06T00:33:34;3.20;;;1.20;;
44098;SDS011;29762;50.086;14.364;2023-04-06T00:38:53;1.83;;;1.30;;
44098;SDS011;29762;50.086;14.364;2023-04-06T00:44:13;2.95;;;1.42;;
44098;SDS011;29762;50.086;14.364;2023-04-06T00:49:32;1.30;;;1.10;;
44098;SDS011;29762;50.086;14.364;2023-04-06T00:54:52;1.30;;;1.20;;
44098;SDS011;29762;50.086;14.364;2023-04-06T01:00:13;1.30;;;1.10;;
44098;SDS011;29762;50.086;14.364;2023-04-06T01:05:36;1.30;;;1.13;;
44098;SDS011;29762;50.086;14.364;2023-04-06T01:11:01;1.15;;;1.05;;
44098;SDS011;29762;50.086;14.364;2023-04-06T01:16:22;1.65;;;1.38;;
44098;SDS011;29762;50.086;14.364;2023-04-06T01:21:58;2.00;;;1.05;;
44098;SDS011;29762;50.086;14.364;2023-04-06T01:27:24;1.38;;;1.20;;
44098;SDS011;29762;50.086;14.364;2023-04-06T01:32:54;4.00;;;1.25;;
44098;SDS011;29762;50.086;14.364;2023-04-06T01:44:03;2.25;;;1.10;;
44098;SDS011;29762;50.086;14.364;2023-04-06T01:49:24;1.23;;;1.10;;
44098;SDS011;29762;50.086;14.364;2023-04-06T01:54:47;1.52;;;1.20;;
44098;SDS011;29762;50.086;14.364;2023-04-06T02:00:09;1.20;;;1.10;;
44098;SDS011;29762;50.086;14.364;2023-04-06T02:05:33;2.17;;;1.25;;
44098;SDS011;29762;50.086;14.364;2023-04-06T02:11:00;1.92;;;1.20;;
44098;SDS011;29762;50.086;14.364;2023-04-06T02:16:26;1.15;;;0.90;;
44098;SDS011;29762;50.086;14.364;2023-04-06T02:21:45;1.63;;;1.33;;
44098;SDS011;29762;50.086;14.364;2023-04-06T02:27:05;1.75;;;1.30;;
44098;SDS011;29762;50.086;14.364;2023-04-06T02:32:25;1.63;;;1.20;;
44098;SDS011;29762;50.086;14.364;2023-04-06T02:37:44;1.65;;;1.20;;
44098;SDS011;29762;50.086;14.364;2023-04-06T02:43:04;1.30;;;1.20;;
44098;SDS011;29762;50.086;14.364;2023-04-06T02:48:24;1.33;;;1.10;;
44098;SDS011;29762;50.086;14.364;2023-04-06T02:53:45;1.20;;;1.10;;
44098;SDS011;29762;50.086;14.364;2023-04-06T02:59:07;1.60;;;1.20;;
44098;SDS011;29762;50.086;14.364;2023-04-06T03:04:26;1.40;;;1.30;;
44098;SDS011;29762;50.086;14.364;2023-04-06T03:09:48;1.30;;;1.20;;
44098;SDS011;29762;50.086;14.364;2023-04-06T03:15:07;1.55;;;1.25;;
44098;SDS011;29762;50.086;14.364;2023-04-06T03:20:29;1.60;;;1.20;;
44098;SDS011;29762;50.086;14.364;2023-04-06T03:25:49;1.50;;;1.20;;
44098;SDS011;29762;50.086;14.364;2023-04-06T03:31:12;1.20;;;1.10;;
44098;SDS011;29762;50.086;14.364;2023-04-06T03:36:44;1.95;;;1.30;;
44098;SDS011;29762;50.086;14.364;2023-04-06T03:42:04;1.77;;;1.27;;
44098;SDS011;29762;50.086;14.364;2023-04-06T03:47:29;1.40;;;1.30;;
44098;SDS011;29762;50.086;14.364;2023-04-06T03:52:53;1.55;;;1.33;;
44098;SDS011;29762;50.086;14.364;2023-04-06T03:58:12;1.60;;;1.40;;
44098;SDS011;29762;50.086;14.364;2023-04-06T04:03:32;1.63;;;1.23;;
44098;SDS011;29762;50.086;14.364;2023-04-06T04:08:51;1.77;;;1.20;;
44098;SDS011;29762;50.086;14.364;2023-04-06T04:14:10;1.63;;;1.17;;
44098;SDS011;29762;50.086;14.364;2023-04-06T04:19:30;1.63;;;1.52;;
44098;SDS011;29762;50.086;14.364;2023-04-06T04:24:50;1.50;;;1.38;;
44098;SDS011;29762;50.086;14.364;2023-04-06T04:30:10;1.65;;;1.25;;
44098;SDS011;29762;50.086;14.364;2023-04-06T04:35:29;1.38;;;1.27;;
44098;SDS011;29762;50.086;14.364;2023-04-06T04:40:50;1.33;;;1.20;;
44098;SDS011;29762;50.086;14.364;2023-04-06T04:46:10;1.50;;;1.40;;
44098;SDS011;29762;50.086;14.364;2023-04-06T04:51:33;1.40;;;1.30;;
44098;SDS011;29762;50.086;14.364;2023-04-06T04:57:02;1.60;;;1.27;;
44098;SDS011;29762;50.086;14.364;2023-04-06T05:02:41;4.20;;;3.60;;
44098;SDS011;29762;50.086;14.364;2023-04-06T05:08:11;2.10;;;1.90;;
44098;SDS011;29762;50.086;14.364;2023-04-06T05:13:39;2.47;;;2.10;;
44098;SDS011;29762;50.086;14.364;2023-04-06T05:19:05;2.70;;;1.98;;
44098;SDS011;29762;50.086;14.364;2023-04-06T05:24:32;3.03;;;1.92;;
44098;SDS011;29762;50.086;14.364;2023-04-06T05:29:52;5.40;;;2.00;;
44098;SDS011;29762;50.086;14.364;2023-04-06T05:35:12;2.42;;;2.05;;
44098;SDS011;29762;50.086;14.364;2023-04-06T05:40:33;1.98;;;1.77;;
44098;SDS011;29762;50.086;14.364;2023-04-06T05:45:53;2.08;;;1.88;;
44098;SDS011;29762;50.086;14.364;2023-04-06T05:51:13;3.45;;;2.20;;
44098;SDS011;29762;50.086;14.364;2023-04-06T05:56:38;1.98;;;1.77;;
44098;SDS011;29762;50.086;14.364;2023-04-06T06:01:59;2.22;;;1.90;;
44098;SDS011;29762;50.086;14.364;2023-04-06T06:07:23;2.40;;;2.10;;
44098;SDS011;29762;50.086;14.364;2023-04-06T06:12:50;3.10;;;2.40;;
44098;SDS011;29762;50.086;14.364;2023-04-06T06:18:10;2.53;;;2.10;;
44098;SDS011;29762;50.086;14.364;2023-04-06T06:23:30;2.25;;;2.05;;
44098;SDS011;29762;50.086;14.364;2023-04-06T06:28:51;2.97;;;2.20;;
44098;SDS011;29762;50.086;14.364;2023-04-06T06:34:11;2.30;;;2.10;;
44098;SDS011;29762;50.086;14.364;2023-04-06T06:39:32;3.65;;;2.17;;
44098;SDS011;29762;50.086;14.364;2023-04-06T06:44:53;2.42;;;2.22;;
44098;SDS011;29762;50.086;14.364;2023-04-06T06:50:13;2.50;;;2.00;;
44098;SDS011;29762;50.086;14.364;2023-04-06T06:55:33;2.33;;;2.13;;
44098;SDS011;29762;50.086;14.364;2023-04-06T07:00:56;2.60;;;1.90;;
44098;SDS011;29762;50.086;14.364;2023-04-06T07:06:17;2.30;;;2.05;;
44098;SDS011;29762;50.086;14.364;2023-04-06T07:11:36;2.08;;;1.88;;
44098;SDS011;29762;50.086;14.364;2023-04-06T07:16:55;3.60;;;2.10;;
44098;SDS011;29762;50.086;14.364;2023-04-06T07:22:15;2.28;;;1.95;;
44098;SDS011;29762;50.086;14.364;2023-04-06T07:27:35;3.05;;;2.35;;
44098;SDS011;29762;50.086;14.364;2023-04-06T07:32:56;2.75;;;2.20;;
44098;SDS011;29762;50.086;14.364;2023-04-06T07:38:17;2.28;;;2.03;;
44098;SDS011;29762;50.086;14.364;2023-04-06T07:43:37;2.97;;;2.20;;
44098;SDS011;29762;50.086;14.364;2023-04-06T07:48:59;2.40;;;1.90;;
44098;SDS011;29762;50.086;14.364;2023-04-06T07:54:20;2.53;;;2.10;;
44098;SDS011;29762;50.086;14.364;2023-04-06T07:59:40;2.38;;;1.90;;
44098;SDS011;29762;50.086;14.364;2023-04-06T08:04:59;2.10;;;1.88;;
44098;SDS011;29762;50.086;14.364;2023-04-06T08:10:18;2.05;;;1.75;;
44098;SDS011;29762;50.086;14.364;2023-04-06T08:15:38;3.83;;;2.30;;
44098;SDS011;29762;50.086;14.364;2023-04-06T08:20:58;3.15;;;2.03;;
44098;SDS011;29762;50.086;14.364;2023-04-06T08:26:17;2.55;;;1.90;;
44098;SDS011;29762;50.086;14.364;2023-04-06T08:31:37;3.50;;;1.70;;
44098;SDS011;29762;50.086;14.364;2023-04-06T08:36:56;4.00;;;2.00;;
44098;SDS011;29762;50.086;14.364;2023-04-06T08:42:22;2.45;;;1.92;;
44098;SDS011;29762;50.086;14.364;2023-04-06T08:47:45;3.17;;;1.70;;
44098;SDS011;29762;50.086;14.364;2023-04-06T08:53:06;2.22;;;1.80;;
44098;SDS011;29762;50.086;14.364;2023-04-06T08:58:28;2.25;;;1.70;;
44098;SDS011;29762;50.086;14.364;2023-04-06T09:03:51;2.10;;;1.83;;
44098;SDS011;29762;50.086;14.364;2023-04-06T09:09:15;3.63;;;1.88;;
44098;SDS011;29762;50.086;14.364;2023-04-06T09:14:35;2.20;;;1.60;;
44098;SDS011;29762;50.086;14.364;2023-04-06T09:19:56;4.45;;;1.67;;
44098;SDS011;29762;50.086;14.364;2023-04-06T09:25:20;2.50;;;1.73;;
44098;SDS011;29762;50.086;14.364;2023-04-06T09:30:48;2.15;;;1.60;;
44098;SDS011;29762;50.086;14.364;2023-04-06T09:36:08;4.28;;;1.50;;
44098;SDS011;29762;50.086;14.364;2023-04-06T09:41:29;5.07;;;1.92;;
44098;SDS011;29762;50.086;14.364;2023-04-06T09:46:50;2.85;;;1.52;;
44098;SDS011;29762;50.086;14.364;2023-04-06T09:52:13;4.18;;;1.77;;
44098;SDS011;29762;50.086;14.364;2023-04-06T09:57:48;4.30;;;3.17;;
44098;SDS011;29762;50.086;14.364;2023-04-06T10:08:32;2.55;;;1.77;;
44098;SDS011;29762;50.086;14.364;2023-04-06T10:13:52;2.28;;;1.88;;
44098;SDS011;29762;50.086;14.364;2023-04-06T10:19:16;2.33;;;1.90;;
44098;SDS011;29762;50.086;14.364;2023-04-06T10:24:38;2.20;;;1.90;;
44098;SDS011;29762;50.086;14.364;2023-04-06T10:30:04;3.28;;;1.80;;
44098;SDS011;29762;50.086;14.364;2023-04-06T10:35:24;3.00;;;1.67;;
44098;SDS011;29762;50.086;14.364;2023-04-06T10:40:55;2.90;;;1.65;;
44098;SDS011;29762;50.086;14.364;2023-04-06T10:46:26;2.75;;;1.65;;
44098;SDS011;29762;50.086;14.364;2023-04-06T10:51:51;1.83;;;1.65;;
44098;SDS011;29762;50.086;14.364;2023-04-06T10:57:12;3.78;;;1.60;;
44098;SDS011;29762;50.086;14.364;2023-04-06T11:02:32;1.98;;;1.48;;
44098;SDS011;29762;50.086;14.364;2023-04-06T11:07:51;2.35;;;1.50;;
44098;SDS011;29762;50.086;14.364;2023-04-06T11:13:11;4.43;;;2.80;;
44098;SDS011;29762;50.086;14.364;2023-04-06T11:18:31;2.45;;;1.80;;
44098;SDS011;29762;50.086;14.364;2023-04-06T11:23:50;2.80;;;2.33;;
44098;SDS011;29762;50.086;14.364;2023-04-06T11:29:10;2.75;;;2.40;;
44098;SDS011;29762;50.086;14.364;2023-04-06T11:34:38;2.38;;;1.90;;
44098;SDS011;29762;50.086;14.364;2023-04-06T11:39:58;4.35;;;1.73;;
44098;SDS011;29762;50.086;14.364;2023-04-06T11:45:18;2.60;;;1.70;;
44098;SDS011;29762;50.086;14.364;2023-04-06T11:50:37;4.88;;;1.88;;
44098;SDS011;29762;50.086;14.364;2023-04-06T11:55:57;4.75;;;1.63;;
44098;SDS011;29762;50.086;14.364;2023-04-06T12:01:17;2.92;;;1.90;;
44098;SDS011;29762;50.086;14.364;2023-04-06T12:06:36;4.45;;;1.60;;
44098;SDS011;29762;50.086;14.364;2023-04-06T12:11:55;3.95;;;1.40;;
44098;SDS011;29762;50.086;14.364;2023-04-06T12:17:15;1.52;;;1.33;;
44098;SDS011;29762;50.086;14.364;2023-04-06T12:22:34;7.25;;;1.80;;
44098;SDS011;29762;50.086;14.364;2023-04-06T12:27:53;3.72;;;1.63;;
44098;SDS011;29762;50.086;14.364;2023-04-06T12:33:13;8.38;;;4.80;;
44098;SDS011;29762;50.086;14.364;2023-04-06T12:38:32;7.32;;;2.90;;
44098;SDS011;29762;50.086;14.364;2023-04-06T12:43:52;5.82;;;2.60;;
44098;SDS011;29762;50.086;14.364;2023-04-06T12:49:11;3.45;;;2.15;;
44098;SDS011;29762;50.086;14.364;2023-04-06T12:54:31;3.42;;;2.33;;
44098;SDS011;29762;50.086;14.364;2023-04-06T12:59:51;3.42;;;2.13;;
44098;SDS011;29762;50.086;14.364;2023-04-06T13:05:12;3.90;;;1.90;;
44098;SDS011;29762;50.086;14.364;2023-04-06T13:10:33;3.33;;;2.38;;
44098;SDS011;29762;50.086;14.364;2023-04-06T13:15:54;3.17;;;1.90;;
44098;SDS011;29762;50.086;14.364;2023-04-06T13:21:17;2.13;;;1.60;;
44098;SDS011;29762;50.086;14.364;2023-04-06T13:26:37;3.33;;;1.92;;
44098;SDS011;29762;50.086;14.364;2023-04-06T13:31:57;2.90;;;1.60;;
44098;SDS011;29762;50.086;14.364;2023-04-06T13:37:16;4.88;;;1.83;;
44098;SDS011;29762;50.086;14.364;2023-04-06T13:42:36;3.35;;;1.63;;
44098;SDS011;29762;50.086;14.364;2023-04-06T13:47:59;4.45;;;1.52;;
44098;SDS011;29762;50.086;14.364;2023-04-06T13:53:18;2.95;;;1.63;;
44098;SDS011;29762;50.086;14.364;2023-04-06T13:58:38;2.65;;;1.48;;
44098;SDS011;29762;50.086;14.364;2023-04-06T14:03:57;3.10;;;2.00;;
44098;SDS011;29762;50.086;14.364;2023-04-06T14:09:16;2.00;;;1.40;;
44098;SDS011;29762;50.086;14.364;2023-04-06T14:14:36;3.90;;;1.67;;
44098;SDS011;29762;50.086;14.364;2023-04-06T14:19:55;2.95;;;1.55;;
44098;SDS011;29762;50.086;14.364;2023-04-06T14:25:15;2.67;;;1.35;;
44098;SDS011;29762;50.086;14.364;2023-04-06T14:30:35;2.47;;;1.50;;
44098;SDS011;29762;50.086;14.364;2023-04-06T14:35:54;4.03;;;1.40;;
44098;SDS011;29762;50.086;14.364;2023-04-06T14:41:23;2.70;;;1.50;;
44098;SDS011;29762;50.086;14.364;2023-04-06T14:46:44;6.97;;;1.58;;
44098;SDS011;29762;50.086;14.364;2023-04-06T14:52:04;2.67;;;1.55;;
44098;SDS011;29762;50.086;14.364;2023-04-06T14:57:23;3.10;;;1.42;;
44098;SDS011;29762;50.086;14.364;2023-04-06T15:02:43;3.05;;;1.75;;
44098;SDS011;29762;50.086;14.364;2023-04-06T15:08:02;2.20;;;1.50;;
44098;SDS011;29762;50.086;14.364;2023-04-06T15:13:22;1.63;;;1.33;;
44098;SDS011;29762;50.086;14.364;2023-04-06T15:18:42;2.47;;;1.67;;
44098;SDS011;29762;50.086;14.364;2023-04-06T15:24:01;1.95;;;1.33;;
44098;SDS011;29762;50.086;14.364;2023-04-06T15:29:22;2.15;;;1.50;;
44098;SDS011;29762;50.086;14.364;2023-04-06T15:34:42;2.40;;;1.40;;
44098;SDS011;29762;50.086;14.364;2023-04-06T15:40:02;1.60;;;1.30;;
44098;SDS011;29762;50.086;14.364;2023-04-06T15:45:23;1.38;;;1.00;;
44098;SDS011;29762;50.086;14.364;2023-04-06T15:50:42;1.40;;;1.30;;
44098;SDS011;29762;50.086;14.364;2023-04-06T15:56:02;6.68;;;3.60;;
44098;SDS011;29762;50.086;14.364;2023-04-06T16:01:23;8.77;;;3.28;;
44098;SDS011;29762;50.086;14.364;2023-04-06T16:06:42;5.60;;;3.58;;
44098;SDS011;29762;50.086;14.364;2023-04-06T16:12:02;6.18;;;3.20;;
44098;SDS011;29762;50.086;14.364;2023-04-06T16:17:22;4.13;;;2.67;;
44098;SDS011;29762;50.086;14.364;2023-04-06T16:22:41;4.07;;;2.03;;
44098;SDS011;29762;50.086;14.364;2023-04-06T16:28:00;3.17;;;2.38;;
44098;SDS011;29762;50.086;14.364;2023-04-06T16:33:20;2.75;;;2.10;;
44098;SDS011;29762;50.086;14.364;2023-04-06T16:38:41;2.75;;;2.03;;
44098;SDS011;29762;50.086;14.364;2023-04-06T16:44:00;5.40;;;1.92;;
44098;SDS011;29762;50.086;14.364;2023-04-06T16:49:20;1.92;;;1.67;;
44098;SDS011;29762;50.086;14.364;2023-04-06T16:54:39;6.15;;;2.08;;
44098;SDS011;29762;50.086;14.364;2023-04-06T16:59:59;3.65;;;1.63;;
44098;SDS011;29762;50.086;14.364;2023-04-06T17:05:19;2.42;;;1.75;;
44098;SDS011;29762;50.086;14.364;2023-04-06T17:10:42;5.05;;;1.80;;
44098;SDS011;29762;50.086;14.364;2023-04-06T17:16:02;2.47;;;1.65;;
44098;SDS011;29762;50.086;14.364;2023-04-06T17:21:22;7.03;;;1.80;;
44098;SDS011;29762;50.086;14.364;2023-04-06T17:26:41;4.10;;;1.63;;
44098;SDS011;29762;50.086;14.364;2023-04-06T17:32:00;1.98;;;1.60;;
44098;SDS011;29762;50.086;14.364;2023-04-06T17:37:20;3.03;;;1.35;;
44098;SDS011;29762;50.086;14.364;2023-04-06T17:42:40;2.78;;;1.25;;
44098;SDS011;29762;50.086;14.364;2023-04-06T17:48:00;2.90;;;1.52;;
44098;SDS011;29762;50.086;14.364;2023-04-06T17:53:19;2.78;;;1.40;;
44098;SDS011;29762;50.086;14.364;2023-04-06T17:58:39;3.72;;;1.88;;
44098;SDS011;29762;50.086;14.364;2023-04-06T18:03:59;1.70;;;1.60;;
44098;SDS011;29762;50.086;14.364;2023-04-06T18:09:18;5.30;;;1.67;;
44098;SDS011;29762;50.086;14.364;2023-04-06T18:14:38;6.35;;;1.75;;
44098;SDS011;29762;50.086;14.364;2023-04-06T18:19:59;3.80;;;1.70;;
44098;SDS011;29762;50.086;14.364;2023-04-06T18:25:18;2.88;;;1.90;;
44098;SDS011;29762;50.086;14.364;2023-04-06T18:30:38;4.25;;;1.60;;
44098;SDS011;29762;50.086;14.364;2023-04-06T18:35:58;4.70;;;1.85;;
44098;SDS011;29762;50.086;14.364;2023-04-06T18:41:18;3.72;;;1.85;;
44098;SDS011;29762;50.086;14.364;2023-04-06T18:46:42;4.82;;;1.73;;
44098;SDS011;29762;50.086;14.364;2023-04-06T18:52:05;4.13;;;1.90;;
44098;SDS011;29762;50.086;14.364;2023-04-06T18:57:26;7.20;;;2.15;;
44098;SDS011;29762;50.086;14.364;2023-04-06T19:02:45;4.22;;;1.60;;
44098;SDS011;29762;50.086;14.364;2023-04-06T19:08:05;2.95;;;1.92;;
44098;SDS011;29762;50.086;14.364;2023-04-06T19:13:24;4.22;;;1.75;;
44098;SDS011;29762;50.086;14.364;2023-04-06T19:18:45;4.65;;;1.80;;
44098;SDS011;29762;50.086;14.364;2023-04-06T19:24:05;3.38;;;1.90;;
44098;SDS011;29762;50.086;14.364;2023-04-06T19:29:24;5.25;;;2.10;;
44098;SDS011;29762;50.086;14.364;2023-04-06T19:34:44;4.07;;;1.85;;
44098;SDS011;29762;50.086;14.364;2023-04-06T19:40:04;5.22;;;1.98;;
44098;SDS011;29762;50.086;14.364;2023-04-06T19:45:29;3.20;;;1.83;;
44098;SDS011;29762;50.086;14.364;2023-04-06T19:50:51;3.10;;;1.83;;
44098;SDS011;29762;50.086;14.364;2023-04-06T19:56:11;4.40;;;1.98;;
44098;SDS011;29762;50.086;14.364;2023-04-06T20:01:31;5.68;;;2.20;;
44098;SDS011;29762;50.086;14.364;2023-04-06T20:06:51;3.72;;;1.92;;
44098;SDS011;29762;50.086;14.364;2023-04-06T20:12:11;3.05;;;1.95;;
44098;SDS011;29762;50.086;14.364;2023-04-06T20:17:31;3.53;;;1.98;;
44098;SDS011;29762;50.086;14.364;2023-04-06T20:22:51;3.35;;;2.03;;
44098;SDS011;29762;50.086;14.364;2023-04-06T20:28:10;4.70;;;2.10;;
44098;SDS011;29762;50.086;14.364;2023-04-06T20:33:30;2.65;;;1.77;;
44098;SDS011;29762;50.086;14.364;2023-04-06T20:38:50;3.35;;;2.13;;
44098;SDS011;29762;50.086;14.364;2023-04-06T20:44:09;2.83;;;1.75;;
44098;SDS011;29762;50.086;14.364;2023-04-06T20:49:29;3.20;;;1.90;;
44098;SDS011;29762;50.086;14.364;2023-04-06T20:54:48;4.60;;;2.10;;
44098;SDS011;29762;50.086;14.364;2023-04-06T21:00:09;4.85;;;2.25;;
44098;SDS011;29762;50.086;14.364;2023-04-06T21:05:30;2.85;;;2.35;;
44098;SDS011;29762;50.086;14.364;2023-04-06T21:10:50;3.47;;;2.20;;
44098;SDS011;29762;50.086;14.364;2023-04-06T21:16:10;3.65;;;2.20;;
44098;SDS011;29762;50.086;14.364;2023-04-06T21:21:32;5.28;;;2.22;;
44098;SDS011;29762;50.086;14.364;2023-04-06T21:26:52;2.40;;;1.83;;
44098;SDS011;29762;50.086;14.364;2023-04-06T21:32:12;4.68;;;1.90;;
44098;SDS011;29762;50.086;14.364;2023-04-06T21:37:32;2.28;;;1.95;;
44098;SDS011;29762;50.086;14.364;2023-04-06T21:42:51;3.75;;;1.90;;
44098;SDS011;29762;50.086;14.364;2023-04-06T21:48:10;4.38;;;1.98;;
44098;SDS011;29762;50.086;14.364;2023-04-06T21:53:30;2.25;;;1.75;;
44098;SDS011;29762;50.086;14.364;2023-04-06T21:58:49;3.17;;;1.80;;
44098;SDS011;29762;50.086;14.364;2023-04-06T22:04:09;4.07;;;2.20;;
44098;SDS011;29762;50.086;14.364;2023-04-06T22:09:29;3.05;;;1.98;;
44098;SDS011;29762;50.086;14.364;2023-04-06T22:14:50;2.95;;;2.17;;
44098;SDS011;29762;50.086;14.364;2023-04-06T22:20:10;2.55;;;2.00;;
44098;SDS011;29762;50.086;14.364;2023-04-06T22:25:30;4.20;;;2.08;;
44098;SDS011;29762;50.086;14.364;2023-04-06T22:30:49;4.78;;;2.05;;
44098;SDS011;29762;50.086;14.364;2023-04-06T22:36:09;3.20;;;2.00;;
44098;SDS011;29762;50.086;14.364;2023-04-06T22:41:29;6.93;;;2.00;;
44098;SDS011;29762;50.086;14.364;2023-04-06T22:46:48;3.92;;;1.95;;
44098;SDS011;29762;50.086;14.364;2023-04-06T22:52:08;2.53;;;1.90;;
44098;SDS011;29762;50.086;14.364;2023-04-06T22:57:27;3.60;;;1.98;;
44098;SDS011;29762;50.086;14.364;2023-04-06T23:02:47;2.70;;;1.50;;
44098;SDS011;29762;50.086;14.364;2023-04-06T23:08:06;2.88;;;1.90;;
44098;SDS011;29762;50.086;14.364;2023-04-06T23:13:26;2.20;;;1.80;;
44098;SDS011;29762;50.086;14.364;2023-04-06T23:18:45;2.70;;;1.88;;
44098;SDS011;29762;50.086;14.364;2023-04-06T23:24:05;2.55;;;1.60;;
44098;SDS011;29762;50.086;14.364;2023-04-06T23:29:25;1.95;;;1.63;;
44098;SDS011;29762;50.086;14.364;2023-04-06T23:34:44;2.45;;;1.60;;
44098;SDS011;29762;50.086;14.364;2023-04-06T23:40:04;2.58;;;1.80;;
44098;SDS011;29762;50.086;14.364;2023-04-06T23:45:25;4.68;;;1.95;;
44098;SDS011;29762;50.086;14.364;2023-04-06T23:50:44;2.17;;;1.70;;
44098;SDS011;29762;50.086;14.364;2023-04-06T23:56:05;2.80;;;1.70;;
